createdAt,value
2018-12-10T00:02:04.857Z,43.43
2018-12-10T00:04:43.524Z,39.13
2018-12-10T00:07:21.113Z,39.30
2018-12-10T00:09:50.323Z,39.43
2018-12-10T00:12:18.624Z,39.33
2018-12-10T00:14:46.916Z,41.23
2018-12-10T00:17:15.209Z,38.37
2018-12-10T00:20:05.045Z,37.37
2018-12-10T00:22:42.032Z,46.43
2018-12-10T00:25:10.369Z,43.63
2018-12-10T00:27:48.095Z,41.40
2018-12-10T00:30:29.291Z,47.07
2018-12-10T00:32:57.759Z,47.57
2018-12-10T00:35:26.208Z,53.37
2018-12-10T00:38:10.796Z,53.53
2018-12-10T00:40:39.089Z,50.90
2018-12-10T00:43:07.487Z,43.70
2018-12-10T00:45:35.834Z,50.80
2018-12-10T00:48:04.180Z,46.23
2018-12-10T00:50:32.551Z,47.83
2018-12-10T00:53:00.882Z,48.83
2018-12-10T00:55:29.177Z,45.97
2018-12-10T00:58:12.372Z,46.53
2018-12-10T01:00:48.424Z,41.33
2018-12-10T01:03:19.907Z,45.77
2018-12-10T01:05:48.278Z,46.23
2018-12-10T01:08:37.315Z,42.67
2018-12-10T01:11:22.212Z,43.50
2018-12-10T01:13:50.489Z,47.70
2018-12-10T01:16:18.788Z,45.27
2018-12-10T01:18:54.236Z,43.33
2018-12-10T01:21:32.722Z,40.30
2018-12-10T01:24:00.938Z,41.70
2018-12-10T01:26:42.228Z,43.50
2018-12-10T01:29:27.205Z,44.93
2018-12-10T01:31:55.503Z,43.30
2018-12-10T01:34:23.848Z,40.10
2018-12-10T01:36:52.235Z,45.83
2018-12-10T01:39:20.474Z,45.50
2018-12-10T01:42:03.277Z,52.97
2018-12-10T01:44:31.555Z,42.73
2018-12-10T01:46:59.820Z,49.23
2018-12-10T01:49:35.960Z,41.13
2018-12-10T01:52:16.663Z,40.17
2018-12-10T01:54:45.124Z,46.63
2018-12-10T01:57:23.893Z,39.33
2018-12-10T02:00:03.884Z,43.30
2018-12-10T02:02:32.432Z,37.70
2018-12-10T02:05:14.983Z,46.00
2018-12-10T02:07:43.303Z,45.90
2018-12-10T02:10:11.652Z,45.50
2018-12-10T02:12:40.010Z,39.90
2018-12-10T02:15:18.885Z,40.10
2018-12-10T02:17:50.860Z,40.27
2018-12-10T02:20:27.297Z,42.83
2018-12-10T02:22:55.709Z,45.00
2018-12-10T02:25:23.904Z,46.47
2018-12-10T02:28:00.389Z,45.33
2018-12-10T02:30:36.797Z,44.30
2018-12-10T02:33:09.362Z,42.47
2018-12-10T02:35:37.708Z,46.23
2018-12-10T02:38:06.079Z,44.83
2018-12-10T02:40:34.640Z,37.40
2018-12-10T02:43:03.232Z,48.87
2018-12-10T02:45:43.916Z,47.97
2018-12-10T02:48:22.378Z,44.37
2018-12-10T02:50:58.111Z,37.43
2018-12-10T02:53:36.730Z,40.70
2018-12-10T02:56:19.853Z,45.87
2018-12-10T02:59:08.953Z,37.70
2018-12-10T03:04:33.153Z,40.63
2018-12-10T03:07:22.149Z,40.43
2018-12-10T03:09:50.450Z,38.97
2018-12-10T03:12:18.908Z,38.80
2018-12-10T03:15:00.701Z,40.33
2018-12-10T03:17:30.295Z,39.57
2018-12-10T03:19:58.516Z,39.67
2018-12-10T03:22:27.036Z,36.83
2018-12-10T03:24:55.356Z,38.50
2018-12-10T03:27:23.688Z,30.30
2018-12-10T03:29:52.157Z,32.60
2018-12-10T03:32:46.373Z,34.13
2018-12-10T03:35:23.480Z,33.13
2018-12-10T03:38:04.252Z,35.93
2018-12-10T03:40:32.602Z,34.40
2018-12-10T03:43:00.933Z,37.80
2018-12-10T03:45:50.276Z,40.07
2018-12-10T03:51:27.833Z,33.33
2018-12-10T03:54:10.623Z,40.90
2018-12-10T03:56:38.905Z,39.70
2018-12-10T03:59:07.225Z,40.23
2018-12-10T04:01:35.740Z,44.27
2018-12-10T04:04:25.295Z,43.10
2018-12-10T04:06:54.163Z,46.23
2018-12-10T04:09:22.483Z,37.60
2018-12-10T04:12:03.286Z,43.70
2018-12-10T04:14:52.838Z,43.97
2018-12-10T04:17:41.356Z,54.43
2018-12-10T04:20:22.156Z,53.90
2018-12-10T04:23:07.184Z,46.70
2018-12-10T04:25:42.587Z,44.97
2018-12-10T04:28:16.555Z,48.27
2018-12-10T04:30:58.287Z,43.40
2018-12-10T04:33:34.373Z,45.83
2018-12-10T04:36:17.629Z,46.77
2018-12-10T04:39:01.495Z,45.57
2018-12-10T04:41:51.126Z,51.57
2018-12-10T04:44:40.574Z,45.57
2018-12-10T04:47:16.708Z,53.70
2018-12-10T04:50:05.679Z,48.13
2018-12-10T04:52:50.662Z,46.97
2018-12-10T04:55:26.845Z,51.03
2018-12-10T04:57:55.447Z,48.07
2018-12-10T05:00:40.606Z,48.57
2018-12-10T05:03:25.567Z,46.90
2018-12-10T05:06:10.260Z,44.27
2018-12-10T05:08:55.120Z,45.17
2018-12-10T05:11:43.891Z,44.40
2018-12-10T05:14:15.719Z,45.03
2018-12-10T05:17:04.998Z,42.33
2018-12-10T05:19:50.466Z,46.83
2018-12-10T05:22:26.499Z,47.00
2018-12-10T05:25:20.662Z,44.00
2018-12-10T05:28:02.244Z,40.50
2018-12-10T05:30:45.851Z,55.03
2018-12-10T05:33:22.100Z,49.20
2018-12-10T05:36:11.459Z,49.50
2018-12-10T05:39:00.968Z,52.57
2018-12-10T05:41:40.442Z,48.37
2018-12-10T05:44:38.377Z,48.73
2018-12-10T05:47:23.926Z,52.40
2018-12-10T05:49:59.857Z,51.83
2018-12-10T05:52:44.702Z,51.50
2018-12-10T05:55:21.271Z,50.23
2018-12-10T05:58:04.425Z,53.43
2018-12-10T06:00:54.124Z,56.20
2018-12-10T06:03:36.866Z,52.20
2018-12-10T06:06:21.500Z,54.07
2018-12-10T06:09:10.536Z,51.83
2018-12-10T06:12:00.329Z,64.70
2018-12-10T06:14:50.035Z,65.07
2018-12-10T06:17:32.861Z,61.47
2018-12-10T06:20:22.205Z,67.40
2018-12-10T06:23:12.052Z,66.80
2018-12-10T06:25:48.656Z,56.70
2018-12-10T06:31:17.482Z,91.70
2018-12-10T06:34:00.611Z,81.90
2018-12-10T06:36:42.464Z,82.60
2018-12-10T06:39:31.433Z,77.20
2018-12-10T06:42:08.295Z,87.23
2018-12-10T06:44:37.409Z,93.73
2018-12-10T06:47:06.321Z,106.07
2018-12-10T06:49:35.046Z,111.63
2018-12-10T06:52:04.062Z,112.67
2018-12-10T06:54:32.466Z,115.03
2018-12-10T06:57:00.961Z,109.43
2018-12-10T06:59:29.317Z,118.70
2018-12-10T07:01:57.869Z,109.87
2018-12-10T07:04:26.293Z,125.50
2018-12-10T07:06:54.817Z,128.27
2018-12-10T07:09:23.361Z,130.50
2018-12-10T07:11:52.328Z,136.20
2018-12-10T07:14:21.418Z,140.77
2018-12-10T07:16:50.024Z,133.97
2018-12-10T07:19:20.218Z,144.87
2018-12-10T07:21:48.877Z,138.97
2018-12-10T07:24:17.305Z,141.43
2018-12-10T07:26:45.775Z,109.57
2018-12-10T07:29:14.421Z,180.97
2018-12-10T07:31:42.793Z,163.33
2018-12-10T07:34:11.336Z,149.10
2018-12-10T07:36:39.740Z,152.73
2018-12-10T07:39:08.695Z,152.77
2018-12-10T07:41:37.142Z,132.10
2018-12-10T07:44:05.514Z,139.70
2018-12-10T07:46:34.292Z,140.53
2018-12-10T07:49:02.845Z,132.40
2018-12-10T07:51:31.384Z,134.97
2018-12-10T07:54:00.287Z,129.80
2018-12-10T07:56:29.124Z,144.73
2018-12-10T07:58:57.847Z,93.27
2018-12-10T08:01:26.621Z,145.37
2018-12-10T08:03:55.374Z,142.30
2018-12-10T08:06:23.970Z,144.40
2018-12-10T08:08:52.686Z,111.47
2018-12-10T08:11:21.372Z,140.27
2018-12-10T08:13:49.905Z,109.43
2018-12-10T08:16:18.417Z,92.07
2018-12-10T08:18:47.203Z,108.57
2018-12-10T08:21:17.561Z,117.72
2018-12-10T08:23:46.078Z,90.17
2018-12-10T08:26:15.315Z,71.03
2018-12-10T08:34:28.058Z,94.13
2018-12-10T08:40:07.741Z,58.23
2018-12-10T08:42:36.371Z,43.40
2018-12-10T08:45:06.166Z,48.07
2018-12-10T08:47:34.848Z,41.93
2018-12-10T08:50:03.786Z,44.37
2018-12-10T08:52:32.843Z,43.43
2018-12-10T08:55:01.325Z,33.77
2018-12-10T08:57:30.153Z,39.30
2018-12-10T08:59:59.436Z,30.87
2018-12-10T09:02:31.313Z,21.23
2018-12-10T09:05:01.006Z,23.17
2018-12-10T09:07:29.410Z,21.03
2018-12-10T09:09:57.876Z,25.27
2018-12-10T09:12:26.669Z,25.30
2018-12-10T09:14:55.210Z,28.53
2018-12-10T09:17:23.801Z,27.90
2018-12-10T09:19:52.231Z,36.40
2018-12-10T09:22:20.983Z,30.67
2018-12-10T09:24:49.474Z,29.10
2018-12-10T09:27:27.380Z,28.37
2018-12-10T09:29:56.004Z,58.03
2018-12-10T09:32:24.555Z,23.37
2018-12-10T09:34:53.172Z,22.20
2018-12-10T09:37:21.894Z,26.27
2018-12-10T09:39:51.696Z,18.73
2018-12-10T09:42:20.895Z,22.20
2018-12-10T09:44:49.526Z,28.70
2018-12-10T09:47:18.075Z,19.90
2018-12-10T09:49:47.847Z,22.73
2018-12-10T09:52:16.740Z,25.10
2018-12-10T09:54:45.649Z,24.57
2018-12-10T09:57:14.457Z,23.57
2018-12-10T09:59:43.259Z,28.83
2018-12-10T10:02:12.836Z,27.73
2018-12-10T10:04:41.443Z,28.27
2018-12-10T10:07:10.021Z,26.53
2018-12-10T10:09:38.439Z,23.93
2018-12-10T10:12:06.964Z,30.63
2018-12-10T10:14:35.407Z,26.90
2018-12-10T10:17:04.393Z,30.37
2018-12-10T10:19:33.055Z,26.07
2018-12-10T10:22:01.571Z,37.23
2018-12-10T10:24:30.198Z,31.77
2018-12-10T10:26:58.862Z,34.63
2018-12-10T10:29:27.592Z,30.30
2018-12-10T10:31:56.128Z,28.67
2018-12-10T10:34:24.532Z,41.07
2018-12-10T10:36:53.125Z,26.70
2018-12-10T10:39:22.061Z,26.20
2018-12-10T10:41:57.426Z,21.23
2018-12-10T10:44:26.373Z,19.03
2018-12-10T10:46:55.075Z,16.20
2018-12-10T10:49:23.703Z,17.17
2018-12-10T10:51:52.319Z,17.27
2018-12-10T10:54:20.771Z,14.57
2018-12-10T10:56:49.304Z,22.40
2018-12-10T10:59:17.855Z,20.63
2018-12-10T11:01:51.661Z,17.47
2018-12-10T11:04:20.560Z,13.53
2018-12-10T11:06:49.503Z,14.30
2018-12-10T11:09:18.275Z,12.00
2018-12-10T11:11:47.059Z,15.00
2018-12-10T11:14:15.827Z,16.67
2018-12-10T11:16:44.502Z,17.33
2018-12-10T11:19:16.267Z,14.40
2018-12-10T11:21:44.829Z,17.83
2018-12-10T11:24:13.207Z,15.73
2018-12-10T11:26:41.644Z,19.03
2018-12-10T11:29:10.629Z,13.40
2018-12-10T11:31:39.462Z,17.73
2018-12-10T11:34:08.124Z,19.97
2018-12-10T11:36:36.967Z,17.90
2018-12-10T11:39:06.887Z,13.67
2018-12-10T11:41:35.740Z,14.27
2018-12-10T11:44:04.270Z,14.90
2018-12-10T11:46:33.367Z,15.67
2018-12-10T11:49:02.127Z,14.27
2018-12-10T11:51:30.544Z,12.77
2018-12-10T11:53:58.843Z,14.77
2018-12-10T11:56:27.083Z,12.97
2018-12-10T11:58:55.425Z,12.17
2018-12-10T12:01:23.785Z,12.53
2018-12-10T12:03:52.174Z,15.53
2018-12-10T12:06:20.605Z,15.07
2018-12-10T12:08:48.894Z,14.43
2018-12-10T12:11:17.385Z,22.60
2018-12-10T12:13:46.062Z,14.67
2018-12-10T12:16:15.013Z,18.30
2018-12-10T12:18:43.196Z,23.00
2018-12-10T12:21:11.383Z,17.47
2018-12-10T12:23:40.232Z,14.80
2018-12-10T12:26:08.584Z,16.87
2018-12-10T12:28:37.152Z,17.87
2018-12-10T12:31:05.420Z,15.13
2018-12-10T12:33:33.760Z,17.57
2018-12-10T12:36:02.066Z,16.30
2018-12-10T12:38:30.297Z,17.33
2018-12-10T12:40:58.768Z,17.13
2018-12-10T12:43:27.013Z,18.80
2018-12-10T12:45:55.527Z,18.17
2018-12-10T12:48:23.855Z,17.80
2018-12-10T12:50:52.541Z,24.20
2018-12-10T12:53:21.075Z,20.17
2018-12-10T12:55:49.647Z,19.63
2018-12-10T12:58:18.022Z,24.47
2018-12-10T13:00:46.682Z,19.77
2018-12-10T13:03:15.093Z,19.77
2018-12-10T13:05:43.486Z,18.00
2018-12-10T13:08:12.522Z,16.77
2018-12-10T13:10:40.831Z,20.20
2018-12-10T13:13:09.451Z,18.03
2018-12-10T13:15:37.931Z,15.57
2018-12-10T13:18:06.501Z,17.30
2018-12-10T13:20:35.730Z,16.77
2018-12-10T13:23:04.089Z,18.47
2018-12-10T13:25:32.461Z,15.23
2018-12-10T13:28:00.921Z,19.67
2018-12-10T13:30:29.347Z,15.70
2018-12-10T13:32:57.871Z,17.20
2018-12-10T13:35:26.393Z,21.97
2018-12-10T13:37:55.647Z,19.77
2018-12-10T13:40:24.533Z,17.37
2018-12-10T13:42:53.182Z,19.60
2018-12-10T13:45:22.205Z,20.43
2018-12-10T13:47:50.857Z,18.57
2018-12-10T13:50:19.622Z,17.93
2018-12-10T13:52:48.560Z,17.57
2018-12-10T13:55:16.953Z,18.33
2018-12-10T13:57:45.396Z,16.73
2018-12-10T14:00:14.287Z,21.50
2018-12-10T14:02:42.747Z,16.77
2018-12-10T14:05:15.765Z,18.43
2018-12-10T14:07:48.124Z,20.70
2018-12-10T14:10:15.706Z,23.37
2018-12-10T14:12:48.939Z,19.73
2018-12-10T14:15:18.921Z,24.20
2018-12-10T14:17:47.314Z,27.63
2018-12-10T14:20:21.038Z,24.70
2018-12-10T14:22:49.485Z,27.63
2018-12-10T14:25:24.365Z,24.10
2018-12-10T14:27:53.088Z,25.27
2018-12-10T14:30:22.669Z,23.60
2018-12-10T14:32:51.455Z,20.50
2018-12-10T14:35:19.862Z,22.27
2018-12-10T14:37:48.369Z,20.90
2018-12-10T14:40:16.936Z,19.30
2018-12-10T14:42:54.189Z,15.63
2018-12-10T14:45:22.811Z,18.70
2018-12-10T14:47:53.983Z,18.60
2018-12-10T14:50:22.266Z,16.67
2018-12-10T14:52:50.948Z,16.73
2018-12-10T14:55:19.411Z,18.03
2018-12-10T14:57:47.903Z,22.47
2018-12-10T15:00:16.427Z,25.17
2018-12-10T15:02:44.856Z,18.80
2018-12-10T15:05:13.189Z,16.70
2018-12-10T15:07:41.524Z,19.40
2018-12-10T15:10:11.005Z,21.57
2018-12-10T15:12:39.693Z,22.77
2018-12-10T15:15:09.700Z,22.90
2018-12-10T15:17:38.711Z,25.37
2018-12-10T15:20:12.050Z,21.97
2018-12-10T15:22:40.474Z,25.07
2018-12-10T15:25:09.756Z,25.93
2018-12-10T15:27:38.550Z,20.23
2018-12-10T15:30:10.418Z,21.57
2018-12-10T15:32:39.252Z,19.87
2018-12-10T15:35:22.563Z,18.50
2018-12-10T15:37:51.755Z,18.57
2018-12-10T15:40:20.225Z,24.50
2018-12-10T15:42:48.780Z,15.30
2018-12-10T15:45:17.192Z,14.53
2018-12-10T15:47:45.862Z,15.13
2018-12-10T15:50:14.251Z,14.80
2018-12-10T15:52:42.641Z,14.60
2018-12-10T15:55:11.090Z,17.53
2018-12-10T15:57:39.601Z,13.17
2018-12-10T16:00:08.739Z,14.40
2018-12-10T16:02:37.057Z,14.83
2018-12-10T16:05:05.846Z,15.10
2018-12-10T16:07:34.259Z,14.07
2018-12-10T16:10:02.785Z,14.77
2018-12-10T16:12:31.543Z,17.30
2018-12-10T16:15:00.028Z,15.57
2018-12-10T16:17:28.561Z,19.07
2018-12-10T16:19:56.898Z,16.67
2018-12-10T16:22:25.433Z,21.07
2018-12-10T16:24:53.909Z,24.57
2018-12-10T16:27:22.719Z,17.13
2018-12-10T16:29:51.265Z,18.47
2018-12-10T16:32:20.962Z,16.47
2018-12-10T16:34:49.464Z,16.20
2018-12-10T16:37:18.551Z,13.03
2018-12-10T16:39:47.273Z,13.07
2018-12-10T16:42:16.601Z,16.43
2018-12-10T16:44:45.098Z,13.80
2018-12-10T16:47:13.693Z,13.77
2018-12-10T16:49:42.113Z,13.17
2018-12-10T16:52:10.523Z,18.47
2018-12-10T16:54:39.905Z,13.63
2018-12-10T16:57:08.363Z,15.43
2018-12-10T16:59:36.616Z,15.90
2018-12-10T17:02:05.097Z,14.80
2018-12-10T17:04:33.545Z,15.20
2018-12-10T17:07:01.953Z,13.73
2018-12-10T17:09:30.475Z,12.97
2018-12-10T17:11:59.025Z,14.97
2018-12-10T17:14:28.427Z,16.63
2018-12-10T17:16:56.747Z,18.73
2018-12-10T17:19:25.613Z,20.43
2018-12-10T17:21:54.131Z,20.77
2018-12-10T17:24:22.758Z,20.40
2018-12-10T17:26:51.459Z,23.50
2018-12-10T17:29:20.162Z,23.57
2018-12-10T17:31:48.558Z,17.83
2018-12-10T17:34:16.935Z,19.47
2018-12-10T17:36:45.340Z,17.13
2018-12-10T17:39:13.722Z,16.93
2018-12-10T17:41:42.692Z,16.53
2018-12-10T17:44:11.069Z,16.63
2018-12-10T17:46:39.369Z,15.43
2018-12-10T17:49:07.726Z,15.30
2018-12-10T17:51:36.293Z,10.33
2018-12-10T17:54:05.099Z,13.20
2018-12-10T17:56:34.399Z,10.37
2018-12-10T17:59:03.245Z,13.97
2018-12-10T18:01:32.003Z,10.80
2018-12-10T18:04:03.272Z,10.70
2018-12-10T18:06:31.600Z,11.80
2018-12-10T18:09:00.095Z,14.10
2018-12-10T18:11:31.577Z,13.63
2018-12-10T18:13:59.920Z,17.53
2018-12-10T18:16:28.185Z,16.13
2018-12-10T18:18:56.691Z,14.90
2018-12-10T18:21:25.071Z,14.03
2018-12-10T18:23:53.473Z,13.27
2018-12-10T18:26:21.864Z,15.77
2018-12-10T18:28:50.352Z,15.80
2018-12-10T18:31:18.700Z,16.23
2018-12-10T18:33:47.314Z,15.63
2018-12-10T18:36:15.996Z,16.50
2018-12-10T18:38:44.864Z,14.67
2018-12-10T18:41:13.348Z,12.00
2018-12-10T18:43:41.867Z,11.97
2018-12-10T18:46:10.384Z,12.93
2018-12-10T18:48:38.823Z,12.37
2018-12-10T18:51:08.067Z,13.70
2018-12-10T18:53:36.507Z,11.20
2018-12-10T18:56:05.046Z,11.13
2018-12-10T18:58:33.697Z,10.43
2018-12-10T19:01:02.080Z,11.80
2018-12-10T19:03:30.507Z,11.97
2018-12-10T19:05:59.028Z,11.80
2018-12-10T19:08:27.683Z,12.27
2018-12-10T19:10:56.242Z,11.07
2018-12-10T19:13:25.042Z,14.87
2018-12-10T19:15:54.189Z,11.57
2018-12-10T19:18:22.466Z,11.43
2018-12-10T19:20:51.002Z,10.80
2018-12-10T19:23:19.414Z,9.83
2018-12-10T19:25:47.984Z,11.10
2018-12-10T19:28:16.358Z,9.20
2018-12-10T19:30:45.389Z,7.90
2018-12-10T19:33:14.287Z,7.13
2018-12-10T19:35:42.712Z,7.10
2018-12-10T19:38:11.158Z,8.60
2018-12-10T19:40:40.274Z,11.20
2018-12-10T19:43:08.777Z,8.47
2018-12-10T19:45:37.086Z,9.03
2018-12-10T19:48:05.404Z,9.10
2018-12-10T19:50:34.068Z,7.20
2018-12-10T19:53:02.881Z,7.87
2018-12-10T19:55:31.728Z,8.27
2018-12-10T19:58:00.552Z,10.60
2018-12-10T20:00:29.036Z,9.53
2018-12-10T20:02:58.290Z,7.67
2018-12-10T20:05:32.397Z,6.53
2018-12-10T20:08:00.733Z,8.63
2018-12-10T20:10:29.102Z,9.17
2018-12-10T20:12:57.481Z,8.93
2018-12-10T20:15:25.814Z,8.97
2018-12-10T20:17:54.303Z,14.87
2018-12-10T20:20:22.743Z,8.07
2018-12-10T20:22:50.992Z,6.87
2018-12-10T20:25:19.502Z,6.67
2018-12-10T20:27:48.128Z,7.63
2018-12-10T20:30:16.579Z,8.00
2018-12-10T20:32:45.121Z,7.73
2018-12-10T20:35:13.533Z,9.80
2018-12-10T20:37:41.957Z,8.07
2018-12-10T20:40:10.753Z,8.07
2018-12-10T20:42:39.443Z,9.97
2018-12-10T20:45:09.522Z,9.67
2018-12-10T20:47:38.197Z,7.83
2018-12-10T20:50:07.517Z,8.47
2018-12-10T20:52:36.091Z,10.53
2018-12-10T20:55:05.496Z,10.47
2018-12-10T20:57:33.805Z,13.03
2018-12-10T21:00:02.167Z,8.63
2018-12-10T21:02:31.128Z,9.83
2018-12-10T21:04:59.687Z,7.77
2018-12-10T21:07:28.235Z,7.80
2018-12-10T21:09:56.920Z,11.27
2018-12-10T21:12:25.481Z,10.57
2018-12-10T21:15:00.212Z,8.47
2018-12-10T21:17:24.999Z,9.30
2018-12-10T21:19:53.280Z,8.70
2018-12-10T21:22:21.775Z,13.83
2018-12-10T21:24:50.180Z,10.47
2018-12-10T21:27:18.786Z,9.93
2018-12-10T21:29:47.244Z,9.10
2018-12-10T21:32:15.682Z,10.67
2018-12-10T21:34:44.110Z,8.23
2018-12-10T21:37:12.436Z,11.10
2018-12-10T21:39:41.376Z,8.33
2018-12-10T21:42:09.675Z,9.60
2018-12-10T21:44:38.060Z,9.83
2018-12-10T21:47:06.959Z,9.47
2018-12-10T21:49:36.196Z,12.50
2018-12-10T21:52:04.694Z,10.83
2018-12-10T21:54:32.980Z,6.80
2018-12-10T21:57:01.701Z,6.60
2018-12-10T21:59:30.752Z,7.93
2018-12-10T22:01:59.188Z,6.63
2018-12-10T22:04:27.745Z,5.87
2018-12-10T22:06:56.000Z,7.33
2018-12-10T22:09:24.320Z,6.77
2018-12-10T22:11:52.580Z,7.57
2018-12-10T22:14:21.066Z,4.87
2018-12-10T22:16:49.479Z,10.43
2018-12-10T22:19:17.762Z,7.93
2018-12-10T22:21:46.280Z,8.30
2018-12-10T22:24:14.616Z,9.37
2018-12-10T22:26:43.056Z,9.40
2018-12-10T22:29:11.545Z,6.10
2018-12-10T22:31:40.061Z,6.57
2018-12-10T22:34:08.481Z,6.53
2018-12-10T22:36:36.968Z,5.93
2018-12-10T22:39:07.398Z,5.07
2018-12-10T22:41:35.697Z,8.00
2018-12-10T22:44:04.362Z,6.30
2018-12-10T22:46:32.930Z,6.00
2018-12-10T22:49:01.288Z,6.53
2018-12-10T22:51:29.914Z,6.17
2018-12-10T22:53:58.321Z,7.00
2018-12-10T22:56:27.185Z,6.43
2018-12-10T22:58:55.679Z,7.60
2018-12-10T23:01:24.595Z,5.20
2018-12-10T23:03:53.004Z,7.23
2018-12-10T23:06:21.475Z,4.60
2018-12-10T23:08:50.029Z,5.80
2018-12-10T23:11:18.548Z,4.20
2018-12-10T23:13:47.361Z,3.90
2018-12-10T23:16:15.960Z,4.83
2018-12-10T23:18:44.811Z,3.97
2018-12-10T23:21:13.511Z,4.27
2018-12-10T23:23:42.215Z,5.30
2018-12-10T23:26:10.546Z,4.53
2018-12-10T23:28:38.741Z,5.47
2018-12-10T23:31:07.195Z,5.07
2018-12-10T23:33:35.752Z,3.20
2018-12-10T23:36:04.315Z,3.23
2018-12-10T23:38:32.695Z,5.13
2018-12-10T23:41:01.196Z,5.90
2018-12-10T23:43:29.468Z,4.43
2018-12-10T23:45:57.752Z,2.90
2018-12-10T23:48:26.098Z,4.27
2018-12-10T23:50:54.536Z,4.33
2018-12-10T23:53:22.832Z,4.00
2018-12-10T23:55:51.236Z,3.97
2018-12-10T23:58:19.702Z,3.43
